createdAt,value
2023-07-01T00:01:56.945Z,2.88
2023-07-01T00:04:23.845Z,2.00
2023-07-01T00:06:51.051Z,3.28
2023-07-01T00:09:17.860Z,4.97
2023-07-01T00:11:44.949Z,1.98
2023-07-01T00:14:11.893Z,2.80
2023-07-01T00:16:41.266Z,1.88
2023-07-01T00:19:08.396Z,2.53
2023-07-01T00:21:35.478Z,2.28
2023-07-01T00:24:02.330Z,2.17
2023-07-01T00:26:29.445Z,2.20
2023-07-01T00:28:56.240Z,1.80
2023-07-01T00:31:23.571Z,2.55
2023-07-01T00:33:50.472Z,2.47
2023-07-01T00:36:17.548Z,3.13
2023-07-01T00:38:44.592Z,2.15
2023-07-01T00:41:11.755Z,2.65
2023-07-01T00:43:38.585Z,2.13
2023-07-01T00:46:05.769Z,1.92
2023-07-01T00:48:32.573Z,2.58
2023-07-01T00:51:09.579Z,2.58
2023-07-01T00:53:43.462Z,2.45
2023-07-01T00:56:10.553Z,4.28
2023-07-01T00:58:37.367Z,1.95
2023-07-01T01:01:08.943Z,3.33
2023-07-01T01:03:40.606Z,2.20
2023-07-01T01:06:18.520Z,2.45
2023-07-01T01:08:58.452Z,1.90
2023-07-01T01:11:26.384Z,2.63
2023-07-01T01:13:53.636Z,2.15
2023-07-01T01:16:21.062Z,3.17
2023-07-01T01:18:48.004Z,2.33
2023-07-01T01:21:15.233Z,2.30
2023-07-01T01:23:47.946Z,2.03
2023-07-01T01:26:21.652Z,2.05
2023-07-01T01:28:48.592Z,2.05
2023-07-01T01:31:15.779Z,2.47
2023-07-01T01:33:42.686Z,2.83
2023-07-01T01:36:27.085Z,2.10
2023-07-01T01:38:53.887Z,2.97
2023-07-01T01:41:25.006Z,2.25
2023-07-01T01:43:58.684Z,2.13
2023-07-01T01:46:26.288Z,2.70
2023-07-01T01:48:54.412Z,2.67
2023-07-01T01:51:21.685Z,2.40
2023-07-01T01:53:48.588Z,1.85
2023-07-01T01:56:15.694Z,1.98
2023-07-01T01:58:42.840Z,2.50
2023-07-01T02:01:09.986Z,1.88
2023-07-01T02:03:36.839Z,2.60
2023-07-01T02:06:04.043Z,3.00
2023-07-01T02:08:31.311Z,2.83
2023-07-01T02:10:59.026Z,1.80
2023-07-01T02:13:25.952Z,2.50
2023-07-01T02:15:53.131Z,1.98
2023-07-01T02:18:19.924Z,2.70
2023-07-01T02:20:47.357Z,2.08
2023-07-01T02:23:14.265Z,2.03
2023-07-01T02:25:42.448Z,2.13
2023-07-01T02:28:09.345Z,3.30
2023-07-01T02:30:36.522Z,2.30
2023-07-01T02:33:03.526Z,1.95
2023-07-01T02:35:30.699Z,2.10
2023-07-01T02:37:57.465Z,2.05
2023-07-01T02:40:24.734Z,1.80
2023-07-01T02:42:51.547Z,2.05
2023-07-01T02:45:18.682Z,1.77
2023-07-01T02:47:45.542Z,2.67
2023-07-01T02:50:12.739Z,1.98
2023-07-01T02:52:39.578Z,1.80
2023-07-01T02:55:07.283Z,1.90
2023-07-01T02:57:34.075Z,1.85
2023-07-01T03:00:01.392Z,2.65
2023-07-01T03:02:28.310Z,1.88
2023-07-01T03:04:55.557Z,2.80
2023-07-01T03:07:22.356Z,2.25
2023-07-01T03:09:49.449Z,2.78
2023-07-01T03:12:16.400Z,3.17
2023-07-01T03:14:44.426Z,2.03
2023-07-01T03:17:12.583Z,2.38
2023-07-01T03:19:42.766Z,1.80
2023-07-01T03:22:09.694Z,2.58
2023-07-01T03:24:36.764Z,2.88
2023-07-01T03:27:04.452Z,1.90
2023-07-01T03:29:31.625Z,1.95
2023-07-01T03:31:58.506Z,3.00
2023-07-01T03:34:26.929Z,2.17
2023-07-01T03:36:53.862Z,1.92
2023-07-01T03:39:20.985Z,2.10
2023-07-01T03:41:47.763Z,2.33
2023-07-01T03:44:14.898Z,1.90
2023-07-01T03:46:41.777Z,2.97
2023-07-01T03:49:08.919Z,2.47
2023-07-01T03:51:35.789Z,2.35
2023-07-01T03:54:02.909Z,2.00
2023-07-01T03:56:29.722Z,2.30
2023-07-01T03:58:56.977Z,1.90
2023-07-01T04:01:26.077Z,1.80
2023-07-01T04:03:54.699Z,2.08
2023-07-01T04:06:21.770Z,2.25
2023-07-01T04:08:56.104Z,1.70
2023-07-01T04:11:23.416Z,2.05
2023-07-01T04:13:50.575Z,2.22
2023-07-01T04:16:17.411Z,1.90
2023-07-01T04:18:44.673Z,2.50
2023-07-01T04:21:11.544Z,3.05
2023-07-01T04:23:38.698Z,2.30
2023-07-01T04:26:06.240Z,2.40
2023-07-01T04:28:33.425Z,2.35
2023-07-01T04:31:00.376Z,2.30
2023-07-01T04:33:27.532Z,2.08
2023-07-01T04:35:54.354Z,2.50
2023-07-01T04:38:21.524Z,2.55
2023-07-01T04:40:51.218Z,2.58
2023-07-01T04:43:20.574Z,3.33
2023-07-01T04:45:47.363Z,2.05
2023-07-01T04:48:14.478Z,2.53
2023-07-01T04:50:41.283Z,2.28
2023-07-01T04:53:08.439Z,2.20
2023-07-01T04:55:35.276Z,2.67
2023-07-01T04:58:02.486Z,2.35
2023-07-01T05:00:29.278Z,2.10
2023-07-01T05:02:56.864Z,2.38
2023-07-01T05:05:24.092Z,3.00
2023-07-01T05:07:51.273Z,2.20
2023-07-01T05:10:18.256Z,3.45
2023-07-01T05:12:46.105Z,2.13
2023-07-01T05:15:12.982Z,3.20
2023-07-01T05:17:40.174Z,2.20
2023-07-01T05:20:07.622Z,2.38
2023-07-01T05:22:34.741Z,2.10
2023-07-01T05:25:01.572Z,3.42
2023-07-01T05:27:28.701Z,2.58
2023-07-01T05:29:55.676Z,2.30
2023-07-01T05:32:22.820Z,3.03
2023-07-01T05:34:49.704Z,2.42
2023-07-01T05:37:16.824Z,3.00
2023-07-01T05:39:43.636Z,2.50
2023-07-01T05:42:10.800Z,2.78
2023-07-01T05:44:37.677Z,11.20
2023-07-01T05:47:05.094Z,2.88
2023-07-01T05:49:31.951Z,6.25
2023-07-01T05:51:59.116Z,3.30
2023-07-01T05:54:25.905Z,4.20
2023-07-01T05:56:53.073Z,2.72
2023-07-01T05:59:19.985Z,4.38
2023-07-01T06:01:47.196Z,2.97
2023-07-01T06:04:14.144Z,3.67
2023-07-01T06:06:41.369Z,3.65
2023-07-01T06:09:09.493Z,3.90
2023-07-01T06:11:37.140Z,4.43
2023-07-01T06:14:04.188Z,3.10
2023-07-01T06:16:31.475Z,2.92
2023-07-01T06:18:58.572Z,3.20
2023-07-01T06:21:25.806Z,3.55
2023-07-01T06:23:56.740Z,5.70
2023-07-01T06:26:23.912Z,3.40
2023-07-01T06:28:50.735Z,4.03
2023-07-01T06:31:17.853Z,2.70
2023-07-01T06:33:45.815Z,3.28
2023-07-01T06:36:14.277Z,3.10
2023-07-01T06:38:41.939Z,4.95
2023-07-01T06:41:09.073Z,3.38
2023-07-01T06:43:40.253Z,3.35
2023-07-01T06:46:07.543Z,2.80
2023-07-01T06:48:34.435Z,2.50
2023-07-01T06:51:01.608Z,3.05
2023-07-01T06:53:28.409Z,4.75
2023-07-01T06:55:55.523Z,4.28
2023-07-01T06:58:22.574Z,2.58
2023-07-01T07:00:49.861Z,3.00
2023-07-01T07:03:16.753Z,2.45
2023-07-01T07:05:44.168Z,2.33
2023-07-01T07:08:10.976Z,2.67
2023-07-01T07:10:38.754Z,4.05
2023-07-01T07:13:05.561Z,2.72
2023-07-01T07:15:32.758Z,3.63
2023-07-01T07:18:01.036Z,3.50
2023-07-01T07:20:28.681Z,2.95
2023-07-01T07:22:55.480Z,2.90
2023-07-01T07:25:23.533Z,2.95
2023-07-01T07:27:50.337Z,2.65
2023-07-01T07:30:17.558Z,3.55
2023-07-01T07:32:44.574Z,3.15
2023-07-01T07:35:11.807Z,3.20
2023-07-01T07:37:38.696Z,3.72
2023-07-01T07:40:08.550Z,4.07
2023-07-01T07:42:36.106Z,3.60
2023-07-01T07:45:04.427Z,4.85
2023-07-01T07:47:31.600Z,4.93
2023-07-01T07:49:58.780Z,3.38
2023-07-01T07:52:25.684Z,4.43
2023-07-01T07:54:52.797Z,4.38
2023-07-01T07:57:19.843Z,4.30
2023-07-01T07:59:46.997Z,3.40
2023-07-01T08:02:13.816Z,3.47
2023-07-01T08:04:40.977Z,3.83
2023-07-01T08:07:08.967Z,4.13
2023-07-01T08:09:36.940Z,3.88
2023-07-01T08:12:04.184Z,3.55
2023-07-01T08:14:31.890Z,3.33
2023-07-01T08:17:01.742Z,4.13
2023-07-01T08:19:29.060Z,3.85
2023-07-01T08:21:55.914Z,4.35
2023-07-01T08:24:23.170Z,4.03
2023-07-01T08:26:50.031Z,3.45
2023-07-01T08:29:17.279Z,3.10
2023-07-01T08:31:44.079Z,3.10
2023-07-01T08:34:11.272Z,9.18
2023-07-01T08:36:38.154Z,4.72
2023-07-01T08:39:05.376Z,4.03
2023-07-01T08:41:32.253Z,3.33
2023-07-01T08:43:59.376Z,4.05
2023-07-01T08:46:26.438Z,3.47
2023-07-01T08:48:53.859Z,3.15
2023-07-01T08:51:27.553Z,5.35
2023-07-01T08:53:54.920Z,3.72
2023-07-01T08:56:21.996Z,3.88
2023-07-01T08:58:49.408Z,5.47
2023-07-01T09:01:16.835Z,3.55
2023-07-01T09:03:44.090Z,4.32
2023-07-01T09:06:10.946Z,4.50
2023-07-01T09:08:40.925Z,4.63
2023-07-01T09:11:10.886Z,4.30
2023-07-01T09:13:38.089Z,6.30
2023-07-01T09:16:05.070Z,5.68
2023-07-01T09:18:32.266Z,6.20
2023-07-01T09:20:59.401Z,4.78
2023-07-01T09:23:35.247Z,4.55
2023-07-01T09:26:08.536Z,4.40
2023-07-01T09:28:35.882Z,6.63
2023-07-01T09:31:04.504Z,5.18
2023-07-01T09:33:32.187Z,5.18
2023-07-01T09:36:02.523Z,5.95
2023-07-01T09:38:33.216Z,5.22
2023-07-01T09:41:13.741Z,5.35
2023-07-01T09:43:41.672Z,5.53
2023-07-01T09:46:09.461Z,4.65
2023-07-01T09:48:37.233Z,5.10
2023-07-01T09:51:04.923Z,5.03
2023-07-01T09:53:36.672Z,4.43
2023-07-01T09:56:05.328Z,7.25
2023-07-01T09:58:32.914Z,6.68
2023-07-01T10:01:00.582Z,5.70
2023-07-01T10:03:28.328Z,5.70
2023-07-01T10:05:55.722Z,4.60
2023-07-01T10:08:23.432Z,6.25
2023-07-01T10:11:11.060Z,5.28
2023-07-01T10:13:43.937Z,7.45
2023-07-01T10:16:11.173Z,4.88
2023-07-01T10:18:38.521Z,5.10
2023-07-01T10:21:23.962Z,4.88
2023-07-01T10:23:57.896Z,6.68
2023-07-01T10:26:49.374Z,7.30
2023-07-01T10:29:28.779Z,10.73
2023-07-01T10:32:11.013Z,7.40
2023-07-01T10:34:56.655Z,8.93
2023-07-01T10:39:51.437Z,8.25
2023-07-01T10:42:32.712Z,5.15
2023-07-01T10:45:12.605Z,8.80
2023-07-01T10:47:46.627Z,7.85
2023-07-01T10:50:19.736Z,7.15
2023-07-01T10:52:58.883Z,6.78
2023-07-01T10:55:46.703Z,5.90
2023-07-01T10:58:24.735Z,6.78
2023-07-01T11:00:55.808Z,7.50
2023-07-01T11:03:35.584Z,6.18
2023-07-01T11:06:13.120Z,6.78
2023-07-01T11:08:49.838Z,7.60
2023-07-01T11:11:35.121Z,5.90
2023-07-01T11:14:04.374Z,6.13
2023-07-01T11:16:32.113Z,7.90
2023-07-01T11:19:03.606Z,7.47
2023-07-01T11:21:31.363Z,6.47
2023-07-01T11:24:06.049Z,6.70
2023-07-01T11:29:00.901Z,6.22
2023-07-01T11:31:34.652Z,5.93
2023-07-01T11:34:01.891Z,6.00
2023-07-01T11:36:38.087Z,6.38
2023-07-01T11:39:09.609Z,6.10
2023-07-01T11:41:37.958Z,7.15
2023-07-01T11:44:08.896Z,6.55
2023-07-01T11:46:38.522Z,6.68
2023-07-01T11:49:11.463Z,6.55
2023-07-01T11:51:39.318Z,6.25
2023-07-01T11:54:06.146Z,6.82
2023-07-01T11:56:33.446Z,6.03
2023-07-01T11:59:01.510Z,6.53
2023-07-01T12:01:29.293Z,6.07
2023-07-01T12:03:56.673Z,5.88
2023-07-01T12:06:26.004Z,6.32
2023-07-01T12:09:07.508Z,6.70
2023-07-01T12:11:49.268Z,6.65
2023-07-01T12:14:20.181Z,6.40
2023-07-01T12:16:49.217Z,7.68
2023-07-01T12:19:19.924Z,6.03
2023-07-01T12:21:47.610Z,5.88
2023-07-01T12:24:21.932Z,7.45
2023-07-01T12:26:53.401Z,6.68
2023-07-01T12:29:20.748Z,6.50
2023-07-01T12:31:48.339Z,5.55
2023-07-01T12:34:16.000Z,6.70
2023-07-01T12:36:43.801Z,5.80
2023-07-01T12:39:10.812Z,6.05
2023-07-01T12:41:38.084Z,6.68
2023-07-01T12:44:06.017Z,6.95
2023-07-01T12:46:33.481Z,6.28
2023-07-01T12:49:01.880Z,6.03
2023-07-01T12:51:29.090Z,6.63
2023-07-01T12:54:07.607Z,6.47
2023-07-01T12:56:43.349Z,6.75
2023-07-01T12:59:10.124Z,6.93
2023-07-01T13:01:37.313Z,8.95
2023-07-01T13:04:07.565Z,7.65
2023-07-01T13:06:39.949Z,7.53
2023-07-01T13:09:08.267Z,7.50
2023-07-01T13:11:37.804Z,7.82
2023-07-01T13:14:12.885Z,7.85
2023-07-01T13:16:43.964Z,8.43
2023-07-01T13:19:14.828Z,7.32
2023-07-01T13:21:48.661Z,8.18
2023-07-01T13:24:15.899Z,8.35
2023-07-01T13:26:47.909Z,8.73
2023-07-01T13:29:18.819Z,13.35
2023-07-01T13:31:50.123Z,7.97
2023-07-01T13:34:20.211Z,8.40
2023-07-01T13:36:52.397Z,8.25
2023-07-01T13:39:44.640Z,6.70
2023-07-01T13:42:11.984Z,7.43
2023-07-01T13:44:39.689Z,6.68
2023-07-01T13:47:08.084Z,6.30
2023-07-01T13:49:34.984Z,7.45
2023-07-01T13:52:02.532Z,9.18
2023-07-01T13:54:29.776Z,8.00
2023-07-01T13:56:58.721Z,7.97
2023-07-01T13:59:27.106Z,6.43
2023-07-01T14:02:06.863Z,7.05
2023-07-01T14:04:37.344Z,8.65
2023-07-01T14:07:05.998Z,7.93
2023-07-01T14:09:34.942Z,5.85
2023-07-01T14:12:02.239Z,6.50
2023-07-01T14:14:30.153Z,6.95
2023-07-01T14:16:57.596Z,12.15
2023-07-01T14:19:24.513Z,12.60
2023-07-01T14:21:54.466Z,10.82
2023-07-01T14:24:28.301Z,10.40
2023-07-01T14:27:01.593Z,13.20
2023-07-01T14:29:28.704Z,8.57
2023-07-01T14:31:57.348Z,11.75
2023-07-01T14:34:32.146Z,7.20
2023-07-01T14:36:59.819Z,9.95
2023-07-01T14:39:46.851Z,8.15
2023-07-01T14:42:34.699Z,9.48
2023-07-01T14:45:01.668Z,7.90
2023-07-01T14:47:29.636Z,7.18
2023-07-01T14:49:56.620Z,13.15
2023-07-01T14:52:25.720Z,6.35
2023-07-01T14:54:53.033Z,9.85
2023-07-01T14:57:21.347Z,8.35
2023-07-01T14:59:48.254Z,6.88
2023-07-01T15:02:15.355Z,8.57
2023-07-01T15:04:42.231Z,7.38
2023-07-01T15:07:09.745Z,7.63
2023-07-01T15:09:36.735Z,8.95
2023-07-01T15:12:04.063Z,6.93
2023-07-01T15:14:30.873Z,7.47
2023-07-01T15:16:57.980Z,9.77
2023-07-01T15:19:25.329Z,6.82
2023-07-01T15:21:52.497Z,7.60
2023-07-01T15:24:19.374Z,6.68
2023-07-01T15:26:46.500Z,7.15
2023-07-01T15:29:13.350Z,6.68
2023-07-01T15:31:40.486Z,7.70
2023-07-01T15:34:07.428Z,6.25
2023-07-01T15:36:36.283Z,6.03
2023-07-01T15:39:03.993Z,6.53
2023-07-01T15:41:45.981Z,6.93
2023-07-01T15:44:14.403Z,6.75
2023-07-01T15:46:43.653Z,6.75
2023-07-01T15:49:10.614Z,6.18
2023-07-01T15:51:39.005Z,7.03
2023-07-01T15:54:05.965Z,6.53
2023-07-01T15:56:33.116Z,6.60
2023-07-01T15:58:59.907Z,6.60
2023-07-01T16:01:27.888Z,6.03
2023-07-01T16:03:54.788Z,5.70
2023-07-01T16:06:21.938Z,5.45
2023-07-01T16:08:51.352Z,5.63
2023-07-01T16:11:34.325Z,6.18
2023-07-01T16:14:01.784Z,6.00
2023-07-01T16:16:43.312Z,6.47
2023-07-01T16:19:13.214Z,5.40
2023-07-01T16:21:40.467Z,6.57
2023-07-01T16:24:31.631Z,6.00
2023-07-01T16:26:58.737Z,5.72
2023-07-01T16:29:25.760Z,8.10
2023-07-01T16:31:52.899Z,6.35
2023-07-01T16:34:22.614Z,5.80
2023-07-01T16:36:49.698Z,5.68
2023-07-01T16:39:16.925Z,6.35
2023-07-01T16:41:44.122Z,5.95
2023-07-01T16:44:10.906Z,5.97
2023-07-01T16:46:39.115Z,6.03
2023-07-01T16:49:07.476Z,6.15
2023-07-01T16:51:35.696Z,5.65
2023-07-01T16:54:12.599Z,6.32
2023-07-01T16:56:40.870Z,6.05
2023-07-01T16:59:09.337Z,6.05
2023-07-01T17:01:41.295Z,6.22
2023-07-01T17:04:12.169Z,6.45
2023-07-01T17:06:43.212Z,6.60
2023-07-01T17:09:45.665Z,6.10
2023-07-01T17:12:36.473Z,5.78
2023-07-01T17:15:29.967Z,6.50
2023-07-01T17:17:57.177Z,5.75
2023-07-01T17:20:24.164Z,6.13
2023-07-01T17:22:51.250Z,9.95
2023-07-01T17:25:18.187Z,11.38
2023-07-01T17:27:45.329Z,15.75
2023-07-01T17:30:12.337Z,51.65
2023-07-01T17:32:39.605Z,39.17
2023-07-01T17:35:17.771Z,40.63
2023-07-01T17:37:48.734Z,81.30
2023-07-01T17:40:16.229Z,50.10
2023-07-01T17:42:43.428Z,43.33
2023-07-01T17:45:10.796Z,23.77
2023-07-01T17:47:38.040Z,24.20
2023-07-01T17:50:19.572Z,25.90
2023-07-01T17:52:49.412Z,23.55
2023-07-01T17:55:16.625Z,30.23
2023-07-01T17:57:55.519Z,24.95
2023-07-01T18:00:24.693Z,34.53
2023-07-01T18:02:52.189Z,24.63
2023-07-01T18:05:19.833Z,28.00
2023-07-01T18:07:47.009Z,22.60
2023-07-01T18:10:13.923Z,25.15
2023-07-01T18:12:42.558Z,27.98
2023-07-01T18:17:41.037Z,25.95
2023-07-01T18:20:08.439Z,22.15
2023-07-01T18:22:35.996Z,15.75
2023-07-01T18:25:03.230Z,12.50
2023-07-01T18:27:30.383Z,17.67
2023-07-01T18:29:57.172Z,18.35
2023-07-01T18:32:26.174Z,15.73
2023-07-01T18:34:53.203Z,14.90
2023-07-01T18:37:20.327Z,15.10
2023-07-01T18:39:47.369Z,12.95
2023-07-01T18:42:14.592Z,11.93
2023-07-01T18:44:41.415Z,14.48
2023-07-01T18:47:08.635Z,15.85
2023-07-01T18:49:35.721Z,10.02
2023-07-01T18:52:04.330Z,12.25
2023-07-01T18:54:31.506Z,11.88
2023-07-01T18:56:58.663Z,12.60
2023-07-01T18:59:25.464Z,11.65
2023-07-01T19:01:52.595Z,10.63
2023-07-01T19:04:19.434Z,12.57
2023-07-01T19:06:46.614Z,12.55
2023-07-01T19:09:14.184Z,12.18
2023-07-01T19:11:41.406Z,11.82
2023-07-01T19:14:08.224Z,9.18
2023-07-01T19:16:35.442Z,11.10
2023-07-01T19:19:02.478Z,11.82
2023-07-01T19:21:30.201Z,9.52
2023-07-01T19:23:57.014Z,10.93
2023-07-01T19:26:24.118Z,9.13
2023-07-01T19:28:50.927Z,10.15
2023-07-01T19:31:18.087Z,8.88
2023-07-01T19:33:44.877Z,11.20
2023-07-01T19:36:12.095Z,8.55
2023-07-01T19:38:38.867Z,10.63
2023-07-01T19:41:06.026Z,8.85
2023-07-01T19:43:32.907Z,8.55
2023-07-01T19:46:00.077Z,11.50
2023-07-01T19:48:26.917Z,8.85
2023-07-01T19:50:54.295Z,8.63
2023-07-01T19:53:22.315Z,10.70
2023-07-01T19:55:49.572Z,8.43
2023-07-01T19:58:20.643Z,10.70
2023-07-01T20:00:48.243Z,8.13
2023-07-01T20:03:15.127Z,7.80
2023-07-01T20:05:45.782Z,8.30
2023-07-01T20:08:13.743Z,10.73
2023-07-01T20:10:40.952Z,8.68
2023-07-01T20:13:08.363Z,11.60
2023-07-01T20:15:35.780Z,10.77
2023-07-01T20:18:03.074Z,10.65
2023-07-01T20:20:31.574Z,7.82
2023-07-01T20:22:58.446Z,9.60
2023-07-01T20:25:25.580Z,9.00
2023-07-01T20:27:52.546Z,8.52
2023-07-01T20:30:19.910Z,7.65
2023-07-01T20:32:47.021Z,8.50
2023-07-01T20:35:14.217Z,10.10
2023-07-01T20:37:41.132Z,7.40
2023-07-01T20:40:08.783Z,8.68
2023-07-01T20:42:38.906Z,7.38
2023-07-01T20:45:06.661Z,8.50
2023-07-01T20:47:33.531Z,6.82
2023-07-01T20:50:00.684Z,10.38
2023-07-01T20:52:27.664Z,7.28
2023-07-01T20:54:55.975Z,8.85
2023-07-01T20:57:22.930Z,7.95
2023-07-01T20:59:50.146Z,6.68
2023-07-01T21:02:17.306Z,7.30
2023-07-01T21:04:46.796Z,7.93
2023-07-01T21:07:13.695Z,8.38
2023-07-01T21:09:40.875Z,7.30
2023-07-01T21:12:07.889Z,7.82
2023-07-01T21:14:35.022Z,7.15
2023-07-01T21:17:02.085Z,8.10
2023-07-01T21:19:29.315Z,6.93
2023-07-01T21:21:56.253Z,8.30
2023-07-01T21:24:23.425Z,6.65
2023-07-01T21:26:50.316Z,7.40
2023-07-01T21:29:17.925Z,6.68
2023-07-01T21:31:51.895Z,6.25
2023-07-01T21:34:20.642Z,7.05
2023-07-01T21:36:51.510Z,7.15
2023-07-01T21:39:25.801Z,6.50
2023-07-01T21:41:52.744Z,6.35
2023-07-01T21:44:20.878Z,7.15
2023-07-01T21:46:47.865Z,5.75
2023-07-01T21:49:15.890Z,6.82
2023-07-01T21:51:47.559Z,8.18
2023-07-01T21:54:20.576Z,6.82
2023-07-01T21:56:49.468Z,7.00
2023-07-01T21:59:17.272Z,6.43
2023-07-01T22:01:44.323Z,6.22
2023-07-01T22:04:12.257Z,5.15
2023-07-01T22:06:43.416Z,7.75
2023-07-01T22:09:10.713Z,6.60
2023-07-01T22:11:38.104Z,5.95
2023-07-01T22:14:06.096Z,6.40
2023-07-01T22:16:33.122Z,5.90
2023-07-01T22:19:00.281Z,6.07
2023-07-01T22:21:30.971Z,5.82
2023-07-01T22:24:01.579Z,5.85
2023-07-01T22:26:29.472Z,6.05
2023-07-01T22:28:56.736Z,6.80
2023-07-01T22:31:23.620Z,6.40
2023-07-01T22:33:50.814Z,5.80
2023-07-01T22:36:17.692Z,4.97
2023-07-01T22:38:45.507Z,6.53
2023-07-01T22:41:13.298Z,5.82
2023-07-01T22:43:43.437Z,7.75
2023-07-01T22:46:10.970Z,5.72
2023-07-01T22:48:38.789Z,7.18
2023-07-01T22:51:05.761Z,5.45
2023-07-01T22:53:33.018Z,6.80
2023-07-01T22:56:00.138Z,7.32
2023-07-01T22:58:27.322Z,6.45
2023-07-01T23:00:54.329Z,5.72
2023-07-01T23:03:21.640Z,6.40
2023-07-01T23:05:48.651Z,6.10
2023-07-01T23:08:16.027Z,6.00
2023-07-01T23:10:42.914Z,5.70
2023-07-01T23:13:10.074Z,6.60
2023-07-01T23:15:38.727Z,4.93
2023-07-01T23:18:10.136Z,5.75
2023-07-01T23:20:40.124Z,6.85
2023-07-01T23:23:07.963Z,6.32
2023-07-01T23:25:34.819Z,5.38
2023-07-01T23:28:10.729Z,5.80
2023-07-01T23:30:38.552Z,5.45
2023-07-01T23:33:05.666Z,5.68
2023-07-01T23:35:32.508Z,5.97
2023-07-01T23:37:59.589Z,5.55
2023-07-01T23:40:26.393Z,5.80
2023-07-01T23:42:53.487Z,5.35
2023-07-01T23:45:20.376Z,7.07
2023-07-01T23:47:49.272Z,5.82
2023-07-01T23:50:17.323Z,4.88
2023-07-01T23:52:44.511Z,8.88
2023-07-01T23:55:11.366Z,5.93
2023-07-01T23:57:38.508Z,5.30
